sensor_id;sensor_type;location;lat;lon;timestamp;pressure;altitude;pressure_sealevel;temperature;humidity
37694;BME280;23531;50.122;8.644;2023-03-25T00:00:48;99645.66;;;11.15;73.28
37694;BME280;23531;50.122;8.644;2023-03-25T00:02:52;99647.38;;;11.09;73.78
37694;BME280;23531;50.122;8.644;2023-03-25T00:04:53;99641.63;;;10.82;73.99
37694;BME280;23531;50.122;8.644;2023-03-25T00:06:54;99643.28;;;10.83;73.83
37694;BME280;23531;50.122;8.644;2023-03-25T00:08:56;99647.53;;;10.73;74.08
37694;BME280;23531;50.122;8.644;2023-03-25T00:10:58;99650.50;;;10.71;74.26
37694;BME280;23531;50.122;8.644;2023-03-25T00:12:59;99655.94;;;10.65;74.54
37694;BME280;23531;50.122;8.644;2023-03-25T00:15:07;99645.19;;;10.65;74.59
37694;BME280;23531;50.122;8.644;2023-03-25T00:17:08;99645.19;;;10.65;74.16
37694;BME280;23531;50.122;8.644;2023-03-25T00:19:12;99642.25;;;10.54;73.89
37694;BME280;23531;50.122;8.644;2023-03-25T00:21:14;99652.38;;;10.82;73.61
37694;BME280;23531;50.122;8.644;2023-03-25T00:23:18;99649.66;;;10.71;72.88
37694;BME280;23531;50.122;8.644;2023-03-25T00:25:20;99656.56;;;10.78;72.73
37694;BME280;23531;50.122;8.644;2023-03-25T00:27:21;99653.22;;;10.53;73.54
37694;BME280;23531;50.122;8.644;2023-03-25T00:29:22;99646.13;;;10.59;72.98
37694;BME280;23531;50.122;8.644;2023-03-25T00:31:25;99647.50;;;10.49;73.23
37694;BME280;23531;50.122;8.644;2023-03-25T00:33:27;99649.41;;;10.61;73.88
37694;BME280;23531;50.122;8.644;2023-03-25T00:35:28;99658.00;;;10.81;72.77
37694;BME280;23531;50.122;8.644;2023-03-25T00:37:30;99656.50;;;10.55;73.69
37694;BME280;23531;50.122;8.644;2023-03-25T00:39:31;99659.59;;;10.70;74.22
37694;BME280;23531;50.122;8.644;2023-03-25T00:41:32;99656.25;;;10.98;73.65
37694;BME280;23531;50.122;8.644;2023-03-25T00:43:36;99657.50;;;10.84;73.04
37694;BME280;23531;50.122;8.644;2023-03-25T00:45:37;99664.47;;;10.62;73.04
37694;BME280;23531;50.122;8.644;2023-03-25T00:47:40;99672.94;;;10.77;73.48
37694;BME280;23531;50.122;8.644;2023-03-25T00:49:41;99669.19;;;10.78;73.05
37694;BME280;23531;50.122;8.644;2023-03-25T00:51:42;99673.28;;;10.69;73.09
37694;BME280;23531;50.122;8.644;2023-03-25T00:53:44;99686.50;;;10.70;72.44
37694;BME280;23531;50.122;8.644;2023-03-25T00:55:45;99678.38;;;10.59;73.46
37694;BME280;23531;50.122;8.644;2023-03-25T00:57:47;99677.34;;;10.60;72.93
37694;BME280;23531;50.122;8.644;2023-03-25T00:59:48;99674.44;;;10.43;74.14
37694;BME280;23531;50.122;8.644;2023-03-25T01:01:50;99670.63;;;10.50;73.78
37694;BME280;23531;50.122;8.644;2023-03-25T01:03:54;99683.06;;;10.63;73.96
37694;BME280;23531;50.122;8.644;2023-03-25T01:05:59;99670.34;;;10.70;72.65
37694;BME280;23531;50.122;8.644;2023-03-25T01:08:02;99671.09;;;10.89;71.43
37694;BME280;23531;50.122;8.644;2023-03-25T01:10:04;99667.16;;;10.62;71.53
37694;BME280;23531;50.122;8.644;2023-03-25T01:12:05;99674.72;;;10.83;71.47
37694;BME280;23531;50.122;8.644;2023-03-25T01:14:08;99668.56;;;10.94;71.38
37694;BME280;23531;50.122;8.644;2023-03-25T01:16:12;99665.13;;;10.87;70.33
37694;BME280;23531;50.122;8.644;2023-03-25T01:18:14;99661.72;;;10.80;69.91
37694;BME280;23531;50.122;8.644;2023-03-25T01:20:17;99653.84;;;10.67;70.88
37694;BME280;23531;50.122;8.644;2023-03-25T01:22:18;99657.41;;;10.79;70.57
37694;BME280;23531;50.122;8.644;2023-03-25T01:24:19;99648.41;;;10.85;70.71
37694;BME280;23531;50.122;8.644;2023-03-25T01:26:21;99660.09;;;10.79;69.36
37694;BME280;23531;50.122;8.644;2023-03-25T01:28:22;99654.81;;;10.84;69.87
37694;BME280;23531;50.122;8.644;2023-03-25T01:30:23;99651.19;;;10.78;69.71
37694;BME280;23531;50.122;8.644;2023-03-25T01:32:25;99649.41;;;10.61;70.29
37694;BME280;23531;50.122;8.644;2023-03-25T01:34:28;99647.09;;;10.76;70.72
37694;BME280;23531;50.122;8.644;2023-03-25T01:36:33;99645.22;;;10.76;70.29
37694;BME280;23531;50.122;8.644;2023-03-25T01:38:35;99645.72;;;10.85;70.12
37694;BME280;23531;50.122;8.644;2023-03-25T01:40:37;99639.03;;;10.76;69.88
37694;BME280;23531;50.122;8.644;2023-03-25T01:42:38;99640.88;;;10.75;70.47
37694;BME280;23531;50.122;8.644;2023-03-25T01:46:59;99639.47;;;10.73;70.73
37694;BME280;23531;50.122;8.644;2023-03-25T01:49:05;99636.69;;;10.68;71.17
37694;BME280;23531;50.122;8.644;2023-03-25T01:51:09;99631.56;;;10.89;70.14
37694;BME280;23531;50.122;8.644;2023-03-25T01:53:14;99630.22;;;10.57;70.66
37694;BME280;23531;50.122;8.644;2023-03-25T01:55:15;99630.00;;;10.59;71.21
37694;BME280;23531;50.122;8.644;2023-03-25T01:57:20;99625.97;;;10.91;70.16
37694;BME280;23531;50.122;8.644;2023-03-25T01:59:22;99635.69;;;10.92;69.62
37694;BME280;23531;50.122;8.644;2023-03-25T02:01:25;99623.63;;;10.83;69.35
37694;BME280;23531;50.122;8.644;2023-03-25T02:03:26;99628.78;;;10.54;70.27
37694;BME280;23531;50.122;8.644;2023-03-25T02:05:32;99618.88;;;10.55;71.17
37694;BME280;23531;50.122;8.644;2023-03-25T02:07:37;99619.25;;;10.59;71.20
37694;BME280;23531;50.122;8.644;2023-03-25T02:09:44;99614.13;;;10.69;70.78
37694;BME280;23531;50.122;8.644;2023-03-25T02:11:46;99606.91;;;10.51;70.68
37694;BME280;23531;50.122;8.644;2023-03-25T02:13:47;99612.63;;;10.43;71.09
37694;BME280;23531;50.122;8.644;2023-03-25T02:15:52;99603.38;;;10.39;72.28
37694;BME280;23531;50.122;8.644;2023-03-25T02:18:04;99601.66;;;10.44;72.39
37694;BME280;23531;50.122;8.644;2023-03-25T02:20:20;99604.09;;;10.34;72.56
37694;BME280;23531;50.122;8.644;2023-03-25T02:22:28;99606.28;;;10.67;72.59
37694;BME280;23531;50.122;8.644;2023-03-25T02:29:31;99598.09;;;10.32;74.46
37694;BME280;23531;50.122;8.644;2023-03-25T02:31:42;99594.41;;;10.15;75.35
37694;BME280;23531;50.122;8.644;2023-03-25T02:33:55;99596.94;;;10.10;76.39
37694;BME280;23531;50.122;8.644;2023-03-25T02:36:15;99597.09;;;10.15;76.71
37694;BME280;23531;50.122;8.644;2023-03-25T02:38:27;99589.69;;;10.10;76.40
37694;BME280;23531;50.122;8.644;2023-03-25T02:40:32;99585.75;;;10.13;76.97
37694;BME280;23531;50.122;8.644;2023-03-25T02:42:36;99585.19;;;10.52;76.80
37694;BME280;23531;50.122;8.644;2023-03-25T02:44:40;99585.97;;;10.41;75.57
37694;BME280;23531;50.122;8.644;2023-03-25T02:46:46;99585.00;;;10.24;76.63
37694;BME280;23531;50.122;8.644;2023-03-25T02:48:49;99580.38;;;10.43;77.04
37694;BME280;23531;50.122;8.644;2023-03-25T02:50:54;99579.03;;;10.22;76.13
37694;BME280;23531;50.122;8.644;2023-03-25T02:52:56;99580.66;;;10.05;77.11
37694;BME280;23531;50.122;8.644;2023-03-25T02:55:01;99572.38;;;10.06;77.85
37694;BME280;23531;50.122;8.644;2023-03-25T02:57:04;99575.75;;;10.20;77.47
37694;BME280;23531;50.122;8.644;2023-03-25T02:59:06;99577.97;;;10.05;77.43
